Time;durP1;ratioP1;P1;durP2;ratioP2;P2;SDS_P1;SDS_P2;PMS_P1;PMS_P2;Temp;Humidity;BMP_temperature;BMP_pressure;BME280_temperature;BME280_humidity;BME280_pressure;Samples;Min_cycle;Max_cycle;Signal;HPM_P1;HPM_P2
2022/11/29 00:00:51;;;;;;;9.20;4.80;;;8.90;99.90;;;8.87;100.00;100812.25;5147211;28;20050;-72
2022/11/29 00:03:23;;;;;;;8.57;4.40;;;8.90;99.90;;;8.89;100.00;100813.19;5146296;28;20057;-71
2022/11/29 00:05:56;;;;;;;9.52;5.00;;;8.90;99.90;;;8.90;100.00;100806.28;5146819;28;20499;-71
2022/11/29 00:08:30;;;;;;;8.30;5.22;;;9.00;99.90;;;8.91;100.00;100814.13;5146388;28;20499;-70
2022/11/29 00:11:06;;;;;;;9.85;4.38;;;8.90;99.90;;;8.90;100.00;100809.75;5143057;28;20046;-71
2022/11/29 00:13:38;;;;;;;7.85;4.30;;;9.00;99.90;;;8.91;100.00;100808.94;5126901;28;20067;-71
2022/11/29 00:16:11;;;;;;;7.95;4.68;;;9.00;99.90;;;8.90;100.00;100807.16;5139365;28;20057;-71
2022/11/29 00:18:44;;;;;;;9.07;4.45;;;8.90;99.90;;;8.88;100.00;100805.31;5144735;28;20046;-71
2022/11/29 00:21:17;;;;;;;10.65;5.72;;;8.90;99.90;;;8.85;100.00;100803.47;5146770;28;20047;-71
2022/11/29 00:23:49;;;;;;;10.57;5.57;;;8.90;99.90;;;8.84;100.00;100804.28;5127354;28;20062;-71
2022/11/29 00:26:21;;;;;;;8.48;5.25;;;8.90;99.90;;;8.83;100.00;100807.72;5125958;28;20158;-71
2022/11/29 00:28:53;;;;;;;8.40;4.88;;;8.90;99.90;;;8.82;100.00;100815.47;5133670;28;20042;-71
2022/11/29 00:31:29;;;;;;;8.60;4.85;;;8.90;99.90;;;8.79;100.00;100811.00;5139039;28;20504;-71
2022/11/29 00:34:05;;;;;;;8.10;4.60;;;8.90;99.90;;;8.77;100.00;100809.19;5128137;28;20062;-70
2022/11/29 00:36:39;;;;;;;7.90;5.22;;;8.80;99.90;;;8.75;100.00;100811.72;5128219;28;20180;-70
2022/11/29 00:39:12;;;;;;;7.82;4.45;;;8.80;99.90;;;8.74;100.00;100815.16;5123373;28;20077;-71
2022/11/29 00:41:44;;;;;;;9.35;5.85;;;8.80;99.90;;;8.73;100.00;100810.75;5132175;28;20043;-71
2022/11/29 00:44:16;;;;;;;9.07;5.15;;;8.80;99.90;;;8.73;100.00;100815.94;5133358;28;20047;-72
2022/11/29 00:46:49;;;;;;;10.93;6.00;;;8.80;99.90;;;8.73;100.00;100815.94;5143271;28;20043;-72
2022/11/29 00:49:21;;;;;;;9.73;5.93;;;8.80;99.90;;;8.74;100.00;100809.94;5140680;28;20039;-72
2022/11/29 00:51:55;;;;;;;9.82;5.35;;;8.80;99.90;;;8.76;100.00;100816.09;5142896;28;20122;-72
2022/11/29 00:54:27;;;;;;;8.55;5.00;;;8.80;99.90;;;8.76;100.00;100821.28;5147843;28;20125;-71
2022/11/29 00:56:59;;;;;;;8.95;5.18;;;8.80;99.90;;;8.77;100.00;100817.88;5162103;28;20054;-71
2022/11/29 00:59:31;;;;;;;8.70;5.13;;;8.80;99.90;;;8.79;100.00;100821.41;5147121;28;20121;-71
2022/11/29 01:02:03;;;;;;;7.50;4.55;;;8.80;99.90;;;8.81;100.00;100816.28;5146605;28;20039;-70
2022/11/29 01:04:35;;;;;;;10.15;5.10;;;8.80;99.90;;;8.81;100.00;100822.38;5145709;28;20053;-71
2022/11/29 01:07:09;;;;;;;9.32;4.70;;;8.80;99.90;;;8.83;100.00;100815.53;5145126;28;20042;-71
2022/11/29 01:09:41;;;;;;;7.97;5.03;;;8.80;99.90;;;8.84;100.00;100819.00;5145783;28;20508;-71
2022/11/29 01:12:13;;;;;;;6.90;4.20;;;8.90;99.90;;;8.84;100.00;100809.50;5146905;28;20038;-72
2022/11/29 01:14:45;;;;;;;8.63;4.45;;;8.90;99.90;;;8.84;100.00;100812.09;5145130;28;20411;-70
2022/11/29 01:17:17;;;;;;;10.48;6.40;;;8.90;99.90;;;8.83;100.00;100812.94;5145753;28;20066;-70
2022/11/29 01:19:49;;;;;;;10.70;6.13;;;8.90;99.90;;;8.81;100.00;100813.69;5145947;28;20044;-70
2022/11/29 01:22:23;;;;;;;8.32;5.13;;;8.90;99.90;;;8.79;100.00;100821.41;5145750;28;20038;-71
2022/11/29 01:24:55;;;;;;;7.57;5.05;;;8.80;99.90;;;8.79;100.00;100816.22;5145556;28;20140;-72
2022/11/29 01:27:27;;;;;;;12.18;5.85;;;8.90;99.90;;;8.79;100.00;100824.00;5143796;28;20061;-71
2022/11/29 01:29:59;;;;;;;9.07;5.20;;;8.90;99.90;;;8.80;100.00;100820.59;5145530;28;20404;-71
2022/11/29 01:32:31;;;;;;;8.00;4.93;;;8.90;99.90;;;8.82;100.00;100828.47;5146398;28;20053;-71
2022/11/29 01:35:05;;;;;;;7.60;4.90;;;8.90;99.90;;;8.82;100.00;100824.16;5145759;28;20055;-71
2022/11/29 01:37:38;;;;;;;7.65;4.35;;;8.90;99.90;;;8.83;100.00;100830.22;5145321;28;20043;-71
2022/11/29 01:40:12;;;;;;;9.75;4.93;;;8.90;99.90;;;8.83;100.00;100831.13;5145745;28;20526;-71
2022/11/29 01:42:44;;;;;;;10.05;4.70;;;8.90;99.90;;;8.85;100.00;100832.06;5145928;28;20140;-71
2022/11/29 01:45:25;;;;;;;9.23;5.22;;;8.90;99.90;;;8.84;100.00;100835.50;5143982;28;20090;-71
2022/11/29 01:47:58;;;;;;;6.70;4.50;;;8.90;99.90;;;8.85;100.00;100834.66;5143842;28;20065;-72
2022/11/29 01:50:30;;;;;;;7.53;4.10;;;8.90;99.90;;;8.86;100.00;100833.84;5144391;28;20507;-71
2022/11/29 01:53:04;;;;;;;6.68;3.85;;;8.90;99.90;;;8.87;100.00;100838.25;5159302;28;20050;-71
2022/11/29 01:55:39;;;;;;;6.20;3.90;;;8.90;99.90;;;8.88;100.00;100845.22;5144396;28;20047;-71
2022/11/29 01:58:12;;;;;;;9.23;5.05;;;8.90;99.90;;;8.86;100.00;100844.22;5143794;28;20432;-71
2022/11/29 02:00:45;;;;;;;7.63;4.38;;;8.90;99.90;;;8.88;100.00;100839.13;5143818;28;20108;-71
2022/11/29 02:03:19;;;;;;;5.78;3.53;;;8.90;99.90;;;8.89;100.00;100839.19;5143955;28;20081;-71
2022/11/29 02:05:53;;;;;;;8.45;4.53;;;8.90;99.90;;;8.90;100.00;100840.06;5159110;28;20078;-71
2022/11/29 02:08:35;;;;;;;6.22;3.90;;;8.90;99.90;;;8.90;100.00;100850.47;5143741;28;20066;-71
2022/11/29 02:11:42;;;;;;;7.57;4.07;;;8.90;99.90;;;8.90;100.00;100842.66;5143873;28;20046;-71
2022/11/29 02:14:43;;;;;;;6.88;3.90;;;9.00;99.90;;;8.90;100.00;100848.75;5144280;28;20049;-71
2022/11/29 02:17:20;;;;;;;;;;;9.00;99.90;;;8.90;100.00;100845.25;5142672;28;20047;-71
2022/11/29 02:20:57;;;;;;;5.05;2.88;;;9.00;99.90;;;8.90;100.00;100848.75;5143963;28;19926;-71
2022/11/29 02:23:57;;;;;;;5.63;2.90;;;9.00;99.90;;;8.91;100.00;100847.03;5142578;28;20078;-71
2022/11/29 02:27:18;;;;;;;4.82;2.42;;;9.00;99.90;;;8.92;100.00;100848.81;5143758;28;20468;-71
2022/11/29 02:30:20;;;;;;;5.47;3.05;;;9.00;99.90;;;8.92;100.00;100849.69;5112083;28;20065;-71
2022/11/29 02:33:52;;;;;;;4.75;2.83;;;9.00;99.90;;;8.91;100.00;100845.31;5129549;28;20167;-71
2022/11/29 02:37:04;;;;;;;5.55;2.90;;;9.00;99.90;;;8.91;100.00;100847.91;5143880;28;20127;-71
2022/11/29 02:40:00;;;;;;;4.50;3.05;;;9.00;99.90;;;8.93;100.00;100850.56;5143167;28;20717;-71
2022/11/29 02:43:01;;;;;;;4.53;2.83;;;9.00;99.90;;;8.91;100.00;100850.53;5143988;28;20046;-71
2022/11/29 02:45:58;;;;;;;4.10;2.83;;;9.00;99.90;;;8.90;100.00;100853.94;5143876;28;20054;-71
2022/11/29 02:48:53;;;;;;;3.22;2.20;;;9.00;99.90;;;8.89;100.00;100844.38;5143301;28;20402;-71
2022/11/29 02:51:32;;;;;;;3.45;2.33;;;9.00;99.90;;;8.89;100.00;100848.69;5158995;28;20078;-71
2022/11/29 02:54:15;;;;;;;4.78;2.45;;;9.00;99.90;;;8.90;100.00;100855.66;5143502;28;20494;-71
2022/11/29 02:56:55;;;;;;;4.03;2.45;;;8.90;99.90;;;8.89;100.00;100853.88;5144757;28;20499;-71
2022/11/29 02:59:45;;;;;;;5.40;2.85;;;8.90;99.90;;;8.89;100.00;100862.56;5144375;28;20049;-71
2022/11/29 03:02:24;;;;;;;7.72;2.72;;;8.90;99.90;;;8.89;100.00;100864.28;5144685;28;20043;-71
2022/11/29 03:05:12;;;;;;;5.38;2.80;;;9.00;99.90;;;8.87;100.00;100866.84;5144726;28;20054;-71
2022/11/29 03:07:54;;;;;;;5.65;3.13;;;9.00;99.90;;;8.87;100.00;100861.63;5144656;28;20043;-71
2022/11/29 03:10:41;;;;;;;4.75;2.63;;;9.00;99.90;;;8.90;100.00;100861.75;5145560;28;20066;-72
2022/11/29 03:13:22;;;;;;;5.63;2.80;;;8.90;99.90;;;8.90;100.00;100856.56;5144961;28;20110;-71
2022/11/29 03:16:03;;;;;;;4.47;2.92;;;9.00;99.90;;;8.90;100.00;100856.56;5145111;28;20542;-71
2022/11/29 03:18:54;;;;;;;4.57;2.75;;;9.00;99.90;;;8.91;100.00;100863.53;5144816;28;20089;-71
2022/11/29 03:21:41;;;;;;;5.43;2.60;;;9.00;99.90;;;8.92;100.00;100864.41;5143565;28;20057;-71
2022/11/29 03:24:21;;;;;;;3.53;2.50;;;9.00;99.90;;;8.93;100.00;100867.09;5144700;28;20039;-71
2022/11/29 03:27:02;;;;;;;4.53;2.70;;;9.00;99.90;;;8.94;100.00;100873.19;5144818;28;20069;-71
2022/11/29 03:29:42;;;;;;;4.40;2.90;;;9.00;99.90;;;8.93;100.00;100872.28;5143298;28;20042;-71
2022/11/29 03:32:20;;;;;;;4.70;3.08;;;9.00;99.90;;;8.92;100.00;100867.88;5142860;28;20517;-70
2022/11/29 03:35:03;;;;;;;5.38;2.80;;;9.00;99.90;;;8.93;100.00;100877.50;5142426;28;20057;-70
2022/11/29 03:37:47;;;;;;;5.68;2.70;;;9.00;99.90;;;8.93;100.00;100882.69;5143496;28;20389;-70
2022/11/29 03:40:26;;;;;;;4.20;2.92;;;9.00;99.90;;;8.93;100.00;100882.69;5146231;28;20129;-70
2022/11/29 03:43:06;;;;;;;4.97;2.88;;;9.00;99.90;;;8.93;100.00;100887.91;5146218;28;20043;-70
2022/11/29 03:45:46;;;;;;;3.70;2.78;;;9.00;99.90;;;8.93;100.00;100885.28;5144919;28;20042;-70
2022/11/29 03:48:28;;;;;;;4.43;2.80;;;9.00;99.90;;;8.94;100.00;100884.47;5146139;28;20053;-69
2022/11/29 03:51:07;;;;;;;4.53;2.50;;;9.00;99.90;;;8.94;100.00;100888.78;5144867;28;20086;-69
2022/11/29 03:53:50;;;;;;;6.18;3.38;;;9.00;99.90;;;8.96;100.00;100894.94;5146237;28;20070;-69
2022/11/29 03:56:29;;;;;;;4.13;2.80;;;9.00;99.90;;;8.97;100.00;100896.69;5146010;28;20055;-70
2022/11/29 03:59:19;;;;;;;4.88;2.65;;;9.00;99.90;;;8.96;100.00;100893.22;5145870;28;20051;-70
2022/11/29 04:02:20;;;;;;;4.75;3.03;;;9.00;99.90;;;8.97;100.00;100897.59;5145641;28;20519;-69
2022/11/29 04:05:34;;;;;;;4.78;2.72;;;9.00;99.90;;;8.97;100.00;100900.19;5145678;28;20081;-70
2022/11/29 04:08:53;;;;;;;3.83;2.70;;;9.00;99.90;;;8.98;100.00;100901.94;5145610;28;20058;-69
2022/11/29 04:12:16;;;;;;;4.82;2.70;;;9.00;99.90;;;9.00;100.00;100903.72;5135598;28;20051;-69
2022/11/29 04:15:44;;;;;;;5.65;2.92;;;9.10;99.90;;;8.98;100.00;100912.34;5144199;28;20423;-69
2022/11/29 04:18:56;;;;;;;5.43;2.60;;;9.10;99.90;;;8.97;100.00;100902.78;5145418;28;20047;-70
2022/11/29 04:21:57;;;;;;;7.05;3.72;;;9.10;99.90;;;8.96;100.00;100898.41;5145388;28;20070;-69
2022/11/29 04:25:12;;;;;;;5.03;3.05;;;9.10;99.90;;;8.97;100.00;100907.09;5145451;28;20043;-69
2022/11/29 04:28:06;;;;;;;5.80;3.50;;;9.00;99.90;;;8.96;100.00;100902.72;5160400;28;20078;-69
2022/11/29 04:30:53;;;;;;;4.35;3.05;;;9.00;99.90;;;8.96;100.00;100911.41;5145106;28;20051;-69
2022/11/29 04:34:22;;;;;;;5.40;3.00;;;9.00;99.90;;;8.98;100.00;100907.16;5143913;28;20058;-69
2022/11/29 04:37:43;;;;;;;4.85;2.70;;;9.00;99.90;;;9.00;100.00;100921.94;5110240;28;20059;-69
2022/11/29 04:40:37;;;;;;;6.15;2.80;;;9.00;99.90;;;8.98;100.00;100922.75;5142609;28;20080;-69
2022/11/29 04:43:39;;;;;;;5.60;3.03;;;9.00;99.90;;;8.99;100.00;100918.44;5145093;28;20046;-69
2022/11/29 04:46:36;;;;;;;6.35;3.50;;;9.10;99.90;;;9.02;100.00;100931.59;5145065;28;20057;-69
2022/11/29 04:49:37;;;;;;;6.80;3.42;;;9.10;99.90;;;9.02;100.00;100930.72;5145003;28;20047;-69
2022/11/29 04:52:33;;;;;;;7.13;2.70;;;9.10;99.90;;;9.03;100.00;100933.38;5144904;28;20388;-70
2022/11/29 04:55:22;;;;;;;11.43;3.95;;;9.10;99.90;;;9.02;100.00;100939.38;5144786;28;20053;-71
2022/11/29 04:58:07;;;;;;;14.00;5.53;;;9.10;99.90;;;9.00;100.00;100945.31;5144918;28;20047;-70
2022/11/29 05:00:54;;;;;;;9.50;4.43;;;9.10;99.90;;;9.01;100.00;100949.72;5144896;28;20389;-70
2022/11/29 05:03:37;;;;;;;11.27;4.55;;;9.10;99.90;;;9.01;100.00;100947.13;5173400;23;20050;-79
2022/11/29 05:06:22;;;;;;;11.18;5.00;;;9.10;99.90;;;9.01;100.00;100958.41;5125834;28;20055;-78
2022/11/29 05:09:05;;;;;;;9.07;4.60;;;9.10;99.90;;;9.02;100.00;100949.78;5142732;28;20046;-80
2022/11/29 05:11:59;;;;;;;12.68;5.20;;;9.10;99.90;;;9.04;100.00;100952.44;5142885;28;20495;-79
2022/11/29 05:14:52;;;;;;;16.48;6.95;;;9.10;99.90;;;9.04;100.00;100965.44;5142894;28;20046;-79
2022/11/29 05:17:36;;;;;;;22.02;7.15;;;9.10;99.90;;;9.05;100.00;100962.03;5142834;28;20434;-79
2022/11/29 05:20:24;;;;;;;20.13;7.70;;;9.10;99.90;;;9.04;100.00;100963.75;5159018;28;20418;-78
2022/11/29 05:23:20;;;;;;;19.00;8.25;;;9.10;99.90;;;9.05;100.00;100962.03;5126579;28;20510;-78
2022/11/29 05:26:01;;;;;;;21.15;9.00;;;9.20;99.90;;;9.04;100.00;100968.94;5143779;28;20057;-78
2022/11/29 05:28:45;;;;;;;25.23;8.25;;;9.10;99.90;;;9.05;100.00;100969.81;5126015;28;20511;-78
2022/11/29 05:31:35;;;;;;;23.42;9.52;;;9.10;99.90;;;9.04;100.00;100974.13;5158762;28;20051;-79
2022/11/29 05:35:07;;;;;;;21.48;9.25;;;9.10;99.90;;;9.07;100.00;100973.41;5126447;28;20058;-78
2022/11/29 05:37:47;;;;;;;20.25;8.13;;;9.10;99.90;;;9.10;100.00;100981.31;5142155;28;20529;-78
2022/11/29 05:40:43;;;;;;;18.98;7.38;;;9.20;99.90;;;9.11;100.00;100981.38;5127134;28;20058;-78
2022/11/29 05:43:42;;;;;;;26.25;8.65;;;9.20;99.90;;;9.12;100.00;100983.16;5141943;28;20396;-79
2022/11/29 05:46:22;;;;;;;25.33;9.55;;;9.20;99.90;;;9.10;100.00;100990.00;5143839;28;20046;-79
2022/11/29 05:49:19;;;;;;;23.90;8.90;;;9.20;99.90;;;9.11;100.00;100990.91;5157818;28;20463;-79
2022/11/29 05:52:00;;;;;;;24.13;8.90;;;9.20;99.90;;;9.11;100.00;100989.19;5143411;28;20345;-79
2022/11/29 05:54:38;;;;;;;29.65;8.93;;;9.20;99.90;;;9.12;100.00;100992.66;5143204;28;20434;-79
2022/11/29 05:57:22;;;;;;;21.27;7.45;;;9.20;99.90;;;9.12;100.00;100998.75;5142204;28;20042;-79
2022/11/29 05:59:57;;;;;;;19.83;8.07;;;9.20;99.90;;;9.12;100.00;100997.88;5125761;28;20077;-78
2022/11/29 06:02:48;;;;;;;23.50;8.18;;;9.20;99.90;;;9.12;100.00;101000.47;5143117;28;20069;-79
2022/11/29 06:05:32;;;;;;;22.35;7.40;;;9.20;99.90;;;9.14;100.00;100996.25;5126432;28;20514;-79
2022/11/29 06:08:15;;;;;;;20.80;8.30;;;9.20;99.90;;;9.13;100.00;100999.69;5165296;28;20116;-78
2022/11/29 06:11:03;;;;;;;27.83;8.82;;;9.20;99.90;;;9.13;100.00;101002.28;5162737;28;20062;-79
2022/11/29 06:13:52;;;;;;;24.02;8.20;;;9.20;99.90;;;9.14;100.00;101012.75;5161809;28;20128;-79
2022/11/29 06:16:50;;;;;;;22.88;8.63;;;9.20;99.90;;;9.15;100.00;101017.13;5163150;28;20077;-79
2022/11/29 06:19:38;;;;;;;26.95;9.18;;;9.30;99.90;;;9.16;100.00;101023.22;5161434;28;20058;-78
2022/11/29 06:22:30;;;;;;;23.83;8.40;;;9.20;99.90;;;9.15;100.00;101018.84;5162428;28;20419;-79
2022/11/29 06:25:29;;;;;;;22.17;8.20;;;9.20;99.90;;;9.15;100.00;101019.72;5163263;28;20125;-79
2022/11/29 06:28:22;;;;;;;24.00;9.02;;;9.30;99.90;;;9.15;100.00;101027.53;5160765;28;20790;-79
2022/11/29 06:31:02;;;;;;;22.67;7.32;;;9.20;99.90;;;9.14;100.00;101028.34;5177586;28;20396;-78
2022/11/29 06:33:45;;;;;;;31.55;10.73;;;9.20;99.90;;;9.13;100.00;101031.78;5161560;28;20070;-79
2022/11/29 06:36:24;;;;;;;27.10;10.07;;;9.30;99.90;;;9.12;100.00;101029.97;5145450;28;20054;-79
2022/11/29 06:38:57;;;;;;;21.77;8.27;;;9.20;99.90;;;9.13;100.00;101030.88;5129078;28;20051;-78
2022/11/29 06:41:32;;;;;;;25.20;10.15;;;9.20;99.90;;;9.16;100.00;101034.50;5161383;28;20049;-78
2022/11/29 06:44:06;;;;;;;22.85;8.90;;;9.20;99.90;;;9.18;100.00;101037.16;5145411;28;20057;-78
2022/11/29 06:46:46;;;;;;;23.35;8.23;;;9.20;99.90;;;9.17;100.00;101038.00;5160268;28;20427;-79
2022/11/29 06:49:25;;;;;;;26.83;8.93;;;9.30;99.90;;;9.16;100.00;101042.31;5161711;28;20054;-79
2022/11/29 06:52:20;;;;;;;23.70;8.25;;;9.20;99.90;;;9.17;100.00;101043.19;5162227;28;20046;-79
2022/11/29 06:55:13;;;;;;;21.58;7.63;;;9.20;99.90;;;9.17;100.00;101048.38;5177369;28;20417;-79
2022/11/29 06:58:02;;;;;;;19.13;7.32;;;9.30;99.90;;;9.17;100.00;101058.78;5161574;28;20391;-78
2022/11/29 07:00:43;;;;;;;22.38;7.15;;;9.30;99.90;;;9.17;100.00;101064.88;5161133;28;20514;-78
2022/11/29 07:03:52;;;;;;;25.33;8.68;;;9.30;99.90;;;9.17;100.00;101058.78;5162306;28;20121;-78
2022/11/29 07:06:28;;;;;;;22.63;7.78;;;9.30;99.90;;;9.16;100.00;101067.44;5160134;28;20158;-78
2022/11/29 07:09:02;;;;;;;;;;;9.30;99.90;;;9.15;100.00;101065.66;5144530;28;20055;-78
2022/11/29 07:11:34;;;;;;;;;;;9.30;99.90;;;9.13;100.00;101068.19;5145585;28;19984;-78
2022/11/29 07:14:10;;;;;;;21.25;8.13;;;9.30;99.90;;;9.13;100.00;101068.19;5164844;28;20398;-78
2022/11/29 07:16:54;;;;;;;24.80;9.52;;;9.30;99.90;;;9.15;100.00;101066.53;5165100;28;20050;-78
2022/11/29 07:19:41;;;;;;;29.67;9.45;;;9.30;99.90;;;9.48;100.00;101061.03;5149536;28;20042;-89
2022/11/29 07:22:36;;;;;;;44.60;11.32;;;9.60;99.90;;;9.61;100.00;101068.56;5164889;28;20054;-88
2022/11/29 07:25:22;;;;;;;41.55;11.18;;;9.80;99.90;;;9.63;100.00;101071.22;5166027;28;20046;-93
2022/11/29 07:28:07;;;;;;;34.00;10.13;;;9.80;99.90;;;9.56;100.00;101079.56;5164357;28;20054;-91
2022/11/29 07:30:52;;;;;;;36.67;11.48;;;9.70;99.90;;;9.49;100.00;101078.44;5165955;28;20051;-93
2022/11/29 07:33:33;;;;;;;36.03;11.88;;;9.70;99.90;;;9.42;100.00;101082.47;5162330;28;20473;-94
2022/11/29 07:36:12;;;;;;;;;;;9.70;99.90;;;9.36;100.00;101082.19;5153303;28;20073;-92
2022/11/29 07:39:01;;;;;;;27.92;9.82;;;9.60;99.90;;;9.36;100.00;101084.81;5146792;28;19929;-93
2022/11/29 07:41:43;;;;;;;40.22;12.10;;;9.60;99.90;;;9.34;100.00;101088.16;5131475;28;20053;-94
2022/11/29 07:44:27;;;;;;;36.08;11.40;;;9.50;99.90;;;9.31;100.00;101088.00;5146042;28;20047;-93
2022/11/29 07:47:01;;;;;;;41.67;12.93;;;9.50;99.90;;;9.30;100.00;101086.25;5130071;28;20061;-93
2022/11/29 07:49:34;;;;;;;37.80;11.55;;;9.50;99.90;;;9.29;100.00;101098.38;5144834;28;20078;-92
2022/11/29 07:52:06;;;;;;;44.08;12.18;;;9.50;99.90;;;9.26;100.00;101100.84;5146006;28;20047;-95
2022/11/29 07:54:40;;;;;;;39.28;11.70;;;9.40;99.90;;;9.26;100.00;101103.44;5145925;28;20050;-82
2022/11/29 07:57:12;;;;;;;49.10;13.57;;;9.40;99.90;;;9.28;100.00;101103.50;5146888;28;20062;-93
2022/11/29 07:59:45;;;;;;;49.95;13.82;;;9.40;99.90;;;9.28;100.00;101104.38;5148739;28;20050;-94
2022/11/29 08:02:29;;;;;;;39.80;11.35;;;9.50;99.90;;;9.28;100.00;101109.59;5149791;28;20054;-94
2022/11/29 08:05:02;;;;;;;42.83;12.68;;;9.40;99.90;;;9.29;100.00;101111.38;5149138;28;20113;-96
2022/11/29 08:07:35;;;;;;;42.08;12.50;;;9.40;99.90;;;9.30;100.00;101114.84;5149650;28;20117;-95
2022/11/29 08:10:11;;;;;;;45.70;13.20;;;9.50;99.90;;;9.29;100.00;101116.56;5148836;28;20058;-95
2022/11/29 08:12:45;;;;;;;76.55;17.48;;;9.40;99.90;;;9.28;100.00;101120.00;5148707;28;20054;-94
2022/11/29 08:15:19;;;;;;;52.83;14.60;;;9.50;99.90;;;9.26;100.00;101116.44;5148614;28;20073;-93
2022/11/29 08:17:53;;;;;;;54.42;16.40;;;9.40;99.90;;;9.29;100.00;101126.97;5151788;28;20038;-95
2022/11/29 08:20:25;;;;;;;49.47;14.10;;;9.50;99.90;;;9.31;100.00;101135.72;5151245;28;20411;-94
2022/11/29 08:22:59;;;;;;;44.75;13.73;;;9.40;99.90;;;9.32;100.00;101140.09;5170163;28;20037;-96
2022/11/29 08:25:32;;;;;;;55.40;14.80;;;9.50;99.90;;;9.45;100.00;101139.88;5166001;28;20094;-95
2022/11/29 08:28:05;;;;;;;57.85;15.25;;;9.60;99.90;;;9.48;100.00;101149.50;5170726;28;20066;-94
2022/11/29 08:30:38;;;;;;;56.20;15.82;;;9.60;99.90;;;9.42;100.00;101155.31;5167796;28;20046;-95
2022/11/29 08:33:12;;;;;;;48.05;13.13;;;9.60;99.90;;;9.40;100.00;101151.78;5195339;28;20057;-94
2022/11/29 08:35:44;;;;;;;50.13;14.27;;;9.60;99.90;;;9.40;100.00;101156.09;5150584;28;20034;-94
2022/11/29 08:38:17;;;;;;;46.55;13.70;;;9.50;99.90;;;9.39;100.00;101155.22;5167974;28;20050;-94
2022/11/29 08:40:50;;;;;;;49.65;13.43;;;9.50;99.90;;;9.43;100.00;101148.41;5150842;28;20061;-95
2022/11/29 08:43:22;;;;;;;43.05;11.82;;;9.50;99.90;;;9.50;100.00;101158.28;5183866;28;20077;-78
2022/11/29 08:45:55;;;;;;;35.55;10.68;;;9.60;99.90;;;10.30;100.00;101157.41;5164925;28;20042;-88
2022/11/29 08:48:29;;;;;;;42.97;11.48;;;10.40;99.90;;;10.50;100.00;101159.16;5181465;28;20058;-88
2022/11/29 08:51:02;;;;;;;47.83;12.60;;;10.60;99.90;;;10.45;100.00;101163.28;5165453;28;20395;-77
2022/11/29 08:53:40;;;;;;;39.45;12.20;;;10.60;99.90;;;10.72;100.00;101167.84;5147231;28;20434;-83
2022/11/29 08:56:19;;;;;;;41.83;11.45;;;10.90;99.90;;;10.69;100.00;101162.47;5164384;28;20108;-83
2022/11/29 08:58:52;;;;;;;44.58;13.00;;;10.90;99.90;;;10.70;100.00;101169.50;5137804;28;20046;-88
2022/11/29 09:01:25;;;;;;;42.33;11.95;;;11.00;99.90;;;10.59;100.00;101172.56;5146093;28;20121;-86
2022/11/29 09:04:06;;;;;;;40.03;11.00;;;10.90;99.90;;;10.51;100.00;101178.28;5159009;28;20038;-85
2022/11/29 09:06:41;;;;;;;;;;;10.80;99.90;;;10.40;100.00;101179.56;5149211;28;20046;-88
2022/11/29 09:09:16;;;;;;;41.35;11.40;;;10.70;99.90;;;10.24;100.00;101178.94;5162841;28;19929;-83
2022/11/29 09:11:48;;;;;;;39.97;12.75;;;10.50;99.90;;;10.14;100.00;101184.53;5164454;28;20069;-85
2022/11/29 09:14:21;;;;;;;34.38;10.85;;;10.40;99.90;;;10.06;100.00;101184.19;5160626;28;20050;-89
2022/11/29 09:16:53;;;;;;;34.70;11.18;;;10.30;99.90;;;10.00;100.00;101194.34;5163190;28;20137;-83
2022/11/29 09:19:27;;;;;;;36.97;12.25;;;10.20;99.90;;;9.92;100.00;101193.13;5163432;28;20051;-82
2022/11/29 09:22:00;;;;;;;39.05;11.80;;;10.10;99.90;;;9.88;100.00;101199.03;5143699;28;20066;-85
2022/11/29 09:24:34;;;;;;;37.33;11.40;;;10.00;99.90;;;9.88;100.00;101200.75;5146689;28;20074;-88
2022/11/29 09:27:06;;;;;;;32.40;9.73;;;10.00;99.90;;;9.83;100.00;101210.94;5162732;28;20498;-86
2022/11/29 09:29:39;;;;;;;31.88;9.90;;;10.00;99.90;;;9.81;100.00;101206.50;5180747;28;20050;-86
2022/11/29 09:32:11;;;;;;;30.48;9.90;;;9.90;99.90;;;9.78;100.00;101207.28;5165069;28;20458;-84
2022/11/29 09:34:45;;;;;;;27.63;9.77;;;9.90;99.90;;;9.79;100.00;101209.03;5163106;28;20046;-89
2022/11/29 09:37:18;;;;;;;33.28;8.80;;;9.90;99.90;;;9.78;100.00;101213.38;5157618;28;20398;-85
2022/11/29 09:39:51;;;;;;;46.83;13.80;;;9.90;99.90;;;9.78;100.00;101220.28;5166234;28;20051;-85
2022/11/29 09:42:41;;;;;;;34.00;11.02;;;9.90;99.90;;;9.76;100.00;101225.41;5162815;28;20689;-85
2022/11/29 09:45:20;;;;;;;31.77;9.57;;;9.90;99.90;;;9.78;100.00;101222.88;5163406;28;20039;-84
2022/11/29 09:48:26;;;;;;;39.53;10.90;;;9.90;99.90;;;9.80;100.00;101223.84;5163271;28;20061;-85
2022/11/29 09:51:12;;;;;;;40.72;10.93;;;9.90;99.90;;;9.82;100.00;101219.59;5163673;28;20058;-84
2022/11/29 09:54:16;;;;;;;46.28;12.55;;;9.90;99.90;;;9.86;100.00;101233.66;5155839;28;20050;-85
2022/11/29 09:56:52;;;;;;;38.10;11.32;;;9.90;99.90;;;9.89;100.00;101232.03;5129211;28;20050;-85
2022/11/29 09:59:28;;;;;;;38.25;11.10;;;10.00;99.90;;;9.94;100.00;101234.88;5176462;28;20046;-87
2022/11/29 10:02:09;;;;;;;39.53;11.43;;;10.00;99.90;;;9.93;100.00;101238.28;5179092;28;20391;-86
2022/11/29 10:04:48;;;;;;;37.97;11.30;;;10.00;99.90;;;9.93;100.00;101239.19;5161792;28;20100;-85
2022/11/29 10:07:28;;;;;;;34.97;10.50;;;10.00;99.90;;;9.92;100.00;101237.41;5155241;28;20423;-85
2022/11/29 10:10:07;;;;;;;28.40;8.85;;;10.00;99.90;;;9.94;100.00;101246.16;5162002;28;20057;-84
2022/11/29 10:12:47;;;;;;;36.38;10.02;;;10.00;99.90;;;9.96;100.00;101236.69;5145438;28;20050;-84
2022/11/29 10:15:24;;;;;;;36.22;10.57;;;10.00;99.90;;;9.94;100.00;101240.97;5161659;28;20458;-84
2022/11/29 10:18:02;;;;;;;37.50;9.90;;;10.00;99.90;;;9.92;100.00;101244.34;5161446;28;20046;-84
2022/11/29 10:20:40;;;;;;;37.25;10.73;;;10.00;99.90;;;9.92;100.00;101247.81;5162030;28;20132;-84
2022/11/29 10:23:23;;;;;;;29.10;8.73;;;10.00;99.90;;;9.92;100.00;101247.81;5162407;28;20406;-85
2022/11/29 10:25:59;;;;;;;30.55;10.15;;;10.00;99.90;;;9.92;100.00;101247.81;5172618;28;20038;-93
2022/11/29 10:28:34;;;;;;;58.95;15.13;;;10.00;99.90;;;9.91;100.00;101245.13;5163948;28;20129;-87
2022/11/29 10:31:18;;;;;;;;;;;10.00;99.90;;;9.88;100.00;101245.91;5161640;28;20058;-88
2022/11/29 10:33:52;;;;;;;33.17;11.00;;;10.00;99.90;;;9.89;100.00;101247.66;5154791;28;19972;-88
2022/11/29 10:36:31;;;;;;;33.63;10.27;;;10.00;99.90;;;9.89;100.00;101247.66;5132598;28;20038;-86
2022/11/29 10:39:12;;;;;;;38.17;10.65;;;10.00;99.90;;;9.91;100.00;101238.25;5160914;28;20414;-86
2022/11/29 10:41:45;;;;;;;44.75;12.30;;;10.00;99.90;;;9.92;100.00;101246.94;5137236;28;20051;-87
2022/11/29 10:44:17;;;;;;;32.92;11.60;;;10.00;99.90;;;9.90;100.00;101249.44;5130865;28;20516;-87
2022/11/29 10:46:49;;;;;;;36.53;11.00;;;9.90;99.90;;;9.90;100.00;101249.44;5159669;28;20048;-86
2022/11/29 10:49:29;;;;;;;41.30;11.38;;;10.00;99.90;;;9.90;100.00;101245.97;5165971;28;20060;-86
2022/11/29 10:52:02;;;;;;;38.92;10.95;;;10.00;99.90;;;9.89;100.00;101245.06;5182505;28;20407;-84
2022/11/29 10:54:43;;;;;;;48.03;13.00;;;10.00;99.90;;;9.96;100.00;101241.03;5166046;28;20046;-84
2022/11/29 10:57:20;;;;;;;45.03;12.55;;;10.00;99.90;;;10.00;100.00;101245.56;5182353;28;20135;-84
2022/11/29 11:00:05;;;;;;;46.47;14.40;;;10.00;99.90;;;10.04;100.00;101243.16;5181481;28;20764;-80
2022/11/29 11:02:39;;;;;;;46.38;13.40;;;10.10;99.90;;;10.07;100.00;101242.41;5165622;28;20054;-84
2022/11/29 11:05:17;;;;;;;38.45;13.35;;;10.10;99.90;;;10.06;100.00;101249.31;5149448;28;20053;-84
2022/11/29 11:07:58;;;;;;;35.22;10.95;;;10.10;99.90;;;10.04;100.00;101243.16;5150440;28;20514;-85
2022/11/29 11:10:32;;;;;;;32.95;10.82;;;10.10;99.90;;;10.16;100.00;101247.09;5150454;28;20050;-90
2022/11/29 11:13:07;;;;;;;32.65;10.90;;;10.20;99.90;;;10.09;100.00;101245.06;5167395;28;20046;-89
2022/11/29 11:15:39;;;;;;;32.83;9.35;;;10.20;99.90;;;10.03;100.00;101246.56;5182947;28;20141;-86